sensor_id;sensor_type;location;lat;lon;timestamp;P1;durP1;ratioP1;P2;durP2;ratioP2
28245;SDS011;15510;52.512;13.300;2023-01-10T00:01:21;2.90;;;1.87;;
28245;SDS011;15510;52.512;13.300;2023-01-10T00:03:47;2.03;;;1.70;;
28245;SDS011;15510;52.512;13.300;2023-01-10T00:06:14;2.43;;;1.93;;
28245;SDS011;15510;52.512;13.300;2023-01-10T00:08:39;2.10;;;1.70;;
28245;SDS011;15510;52.512;13.300;2023-01-10T00:11:05;2.73;;;2.10;;
28245;SDS011;15510;52.512;13.300;2023-01-10T00:13:54;5.07;;;1.80;;
28245;SDS011;15510;52.512;13.300;2023-01-10T00:16:20;4.13;;;1.80;;
28245;SDS011;15510;52.512;13.300;2023-01-10T00:18:47;4.03;;;1.80;;
28245;SDS011;15510;52.512;13.300;2023-01-10T00:21:13;5.03;;;2.20;;
28245;SDS011;15510;52.512;13.300;2023-01-10T00:23:39;1.87;;;1.70;;
28245;SDS011;15510;52.512;13.300;2023-01-10T00:26:05;1.63;;;1.40;;
28245;SDS011;15510;52.512;13.300;2023-01-10T00:28:31;2.67;;;1.50;;
28245;SDS011;15510;52.512;13.300;2023-01-10T00:31:00;4.50;;;1.67;;
28245;SDS011;15510;52.512;13.300;2023-01-10T00:33:30;2.50;;;1.77;;
28245;SDS011;15510;52.512;13.300;2023-01-10T00:35:57;1.93;;;1.53;;
28245;SDS011;15510;52.512;13.300;2023-01-10T00:38:24;2.07;;;1.87;;
28245;SDS011;15510;52.512;13.300;2023-01-10T00:40:50;3.70;;;2.20;;
28245;SDS011;15510;52.512;13.300;2023-01-10T00:43:16;2.07;;;1.87;;
28245;SDS011;15510;52.512;13.300;2023-01-10T00:46:00;1.90;;;1.67;;
28245;SDS011;15510;52.512;13.300;2023-01-10T00:48:27;3.20;;;2.00;;
28245;SDS011;15510;52.512;13.300;2023-01-10T00:50:52;2.67;;;2.10;;
28245;SDS011;15510;52.512;13.300;2023-01-10T00:53:19;2.83;;;1.87;;
28245;SDS011;15510;52.512;13.300;2023-01-10T00:55:45;1.97;;;1.77;;
28245;SDS011;15510;52.512;13.300;2023-01-10T00:58:12;2.47;;;2.10;;
28245;SDS011;15510;52.512;13.300;2023-01-10T01:00:38;2.93;;;1.97;;
28245;SDS011;15510;52.512;13.300;2023-01-10T01:03:05;2.10;;;1.87;;
28245;SDS011;15510;52.512;13.300;2023-01-10T01:05:32;3.97;;;2.47;;
28245;SDS011;15510;52.512;13.300;2023-01-10T01:07:58;2.03;;;1.90;;
28245;SDS011;15510;52.512;13.300;2023-01-10T01:10:24;4.10;;;1.90;;
28245;SDS011;15510;52.512;13.300;2023-01-10T01:12:59;2.80;;;1.97;;
28245;SDS011;15510;52.512;13.300;2023-01-10T01:15:31;3.23;;;1.90;;
28245;SDS011;15510;52.512;13.300;2023-01-10T01:17:59;3.07;;;2.30;;
28245;SDS011;15510;52.512;13.300;2023-01-10T01:20:25;2.03;;;1.83;;
28245;SDS011;15510;52.512;13.300;2023-01-10T01:22:51;1.97;;;1.77;;
28245;SDS011;15510;52.512;13.300;2023-01-10T01:25:16;2.73;;;1.97;;
28245;SDS011;15510;52.512;13.300;2023-01-10T01:27:43;2.07;;;1.87;;
28245;SDS011;15510;52.512;13.300;2023-01-10T01:30:09;5.27;;;2.37;;
28245;SDS011;15510;52.512;13.300;2023-01-10T01:32:36;4.13;;;2.83;;
28245;SDS011;15510;52.512;13.300;2023-01-10T01:35:01;3.67;;;2.03;;
28245;SDS011;15510;52.512;13.300;2023-01-10T01:37:27;5.70;;;2.13;;
28245;SDS011;15510;52.512;13.300;2023-01-10T01:39:53;4.57;;;2.30;;
28245;SDS011;15510;52.512;13.300;2023-01-10T01:42:26;4.17;;;2.17;;
28245;SDS011;15510;52.512;13.300;2023-01-10T01:47:42;2.60;;;2.27;;
28245;SDS011;15510;52.512;13.300;2023-01-10T01:52:47;3.47;;;2.27;;
28245;SDS011;15510;52.512;13.300;2023-01-10T01:55:15;3.07;;;2.27;;
28245;SDS011;15510;52.512;13.300;2023-01-10T01:57:41;3.40;;;2.37;;
28245;SDS011;15510;52.512;13.300;2023-01-10T02:00:10;3.10;;;2.10;;
28245;SDS011;15510;52.512;13.300;2023-01-10T02:02:38;3.97;;;2.30;;
28245;SDS011;15510;52.512;13.300;2023-01-10T02:05:11;3.97;;;2.40;;
28245;SDS011;15510;52.512;13.300;2023-01-10T02:07:41;3.90;;;2.50;;
28245;SDS011;15510;52.512;13.300;2023-01-10T02:10:16;4.40;;;2.70;;
28245;SDS011;15510;52.512;13.300;2023-01-10T02:12:48;3.73;;;2.83;;
28245;SDS011;15510;52.512;13.300;2023-01-10T02:15:16;3.10;;;2.43;;
28245;SDS011;15510;52.512;13.300;2023-01-10T02:17:42;4.10;;;2.97;;
28245;SDS011;15510;52.512;13.300;2023-01-10T02:20:11;3.73;;;2.70;;
28245;SDS011;15510;52.512;13.300;2023-01-10T02:22:44;3.00;;;2.40;;
28245;SDS011;15510;52.512;13.300;2023-01-10T02:34:17;2.23;;;1.80;;
28245;SDS011;15510;52.512;13.300;2023-01-10T02:45:41;2.73;;;1.80;;
28245;SDS011;15510;52.512;13.300;2023-01-10T02:48:10;3.53;;;2.07;;
28245;SDS011;15510;52.512;13.300;2023-01-10T02:53:19;3.43;;;2.00;;
28245;SDS011;15510;52.512;13.300;2023-01-10T03:01:40;3.47;;;2.00;;
28245;SDS011;15510;52.512;13.300;2023-01-10T03:04:22;5.07;;;2.10;;
28245;SDS011;15510;52.512;13.300;2023-01-10T03:11:50;3.10;;;2.10;;
28245;SDS011;15510;52.512;13.300;2023-01-10T03:14:24;4.23;;;2.87;;
28245;SDS011;15510;52.512;13.300;2023-01-10T03:16:55;3.33;;;2.47;;
28245;SDS011;15510;52.512;13.300;2023-01-10T03:19:24;5.70;;;3.00;;
28245;SDS011;15510;52.512;13.300;2023-01-10T03:21:56;4.60;;;2.90;;
28245;SDS011;15510;52.512;13.300;2023-01-10T03:24:28;8.33;;;2.87;;
28245;SDS011;15510;52.512;13.300;2023-01-10T03:27:02;4.23;;;2.90;;
28245;SDS011;15510;52.512;13.300;2023-01-10T03:29:38;8.77;;;3.30;;
28245;SDS011;15510;52.512;13.300;2023-01-10T03:32:12;3.90;;;2.93;;
28245;SDS011;15510;52.512;13.300;2023-01-10T03:34:42;5.40;;;3.10;;
28245;SDS011;15510;52.512;13.300;2023-01-10T03:37:12;5.33;;;3.27;;
28245;SDS011;15510;52.512;13.300;2023-01-10T03:39:50;3.80;;;3.13;;
28245;SDS011;15510;52.512;13.300;2023-01-10T03:42:28;5.93;;;3.10;;
28245;SDS011;15510;52.512;13.300;2023-01-10T03:45:28;4.73;;;3.50;;
28245;SDS011;15510;52.512;13.300;2023-01-10T03:48:00;5.83;;;3.23;;
28245;SDS011;15510;52.512;13.300;2023-01-10T03:50:29;8.90;;;3.40;;
28245;SDS011;15510;52.512;13.300;2023-01-10T03:52:56;7.90;;;3.30;;
28245;SDS011;15510;52.512;13.300;2023-01-10T03:55:25;5.93;;;3.03;;
28245;SDS011;15510;52.512;13.300;2023-01-10T03:57:53;6.93;;;3.77;;
28245;SDS011;15510;52.512;13.300;2023-01-10T04:00:18;6.10;;;3.50;;
28245;SDS011;15510;52.512;13.300;2023-01-10T04:02:45;8.33;;;3.60;;
28245;SDS011;15510;52.512;13.300;2023-01-10T04:05:11;6.33;;;3.93;;
28245;SDS011;15510;52.512;13.300;2023-01-10T04:07:37;7.07;;;4.03;;
28245;SDS011;15510;52.512;13.300;2023-01-10T04:10:03;7.20;;;4.03;;
28245;SDS011;15510;52.512;13.300;2023-01-10T04:12:43;8.63;;;4.60;;
28245;SDS011;15510;52.512;13.300;2023-01-10T04:15:09;11.83;;;4.97;;
28245;SDS011;15510;52.512;13.300;2023-01-10T04:17:35;8.10;;;4.40;;
28245;SDS011;15510;52.512;13.300;2023-01-10T04:20:04;9.83;;;4.70;;
28245;SDS011;15510;52.512;13.300;2023-01-10T04:22:39;8.30;;;4.50;;
28245;SDS011;15510;52.512;13.300;2023-01-10T04:25:33;9.50;;;4.90;;
28245;SDS011;15510;52.512;13.300;2023-01-10T04:28:17;9.37;;;4.20;;
28245;SDS011;15510;52.512;13.300;2023-01-10T04:30:51;11.83;;;5.77;;
28245;SDS011;15510;52.512;13.300;2023-01-10T04:33:17;14.00;;;5.10;;
28245;SDS011;15510;52.512;13.300;2023-01-10T04:35:50;9.70;;;4.97;;
28245;SDS011;15510;52.512;13.300;2023-01-10T04:38:16;9.77;;;5.10;;
28245;SDS011;15510;52.512;13.300;2023-01-10T04:40:42;7.90;;;4.70;;
28245;SDS011;15510;52.512;13.300;2023-01-10T04:43:08;13.27;;;4.93;;
28245;SDS011;15510;52.512;13.300;2023-01-10T04:45:35;11.80;;;4.83;;
28245;SDS011;15510;52.512;13.300;2023-01-10T04:48:01;8.30;;;5.07;;
28245;SDS011;15510;52.512;13.300;2023-01-10T04:50:27;15.17;;;5.40;;
28245;SDS011;15510;52.512;13.300;2023-01-10T04:52:53;10.40;;;4.50;;
28245;SDS011;15510;52.512;13.300;2023-01-10T04:55:19;8.30;;;4.90;;
28245;SDS011;15510;52.512;13.300;2023-01-10T04:57:45;10.20;;;4.53;;
28245;SDS011;15510;52.512;13.300;2023-01-10T05:00:10;11.63;;;5.53;;
28245;SDS011;15510;52.512;13.300;2023-01-10T05:02:37;11.20;;;5.23;;
28245;SDS011;15510;52.512;13.300;2023-01-10T05:05:08;9.20;;;4.60;;
28245;SDS011;15510;52.512;13.300;2023-01-10T05:07:34;12.07;;;5.20;;
28245;SDS011;15510;52.512;13.300;2023-01-10T05:10:01;9.70;;;5.43;;
28245;SDS011;15510;52.512;13.300;2023-01-10T05:12:26;11.93;;;5.57;;
28245;SDS011;15510;52.512;13.300;2023-01-10T05:14:52;9.50;;;4.93;;
28245;SDS011;15510;52.512;13.300;2023-01-10T05:17:18;11.53;;;5.37;;
28245;SDS011;15510;52.512;13.300;2023-01-10T05:19:43;16.43;;;5.40;;
28245;SDS011;15510;52.512;13.300;2023-01-10T05:22:09;13.63;;;4.77;;
28245;SDS011;15510;52.512;13.300;2023-01-10T05:24:35;10.33;;;5.47;;
28245;SDS011;15510;52.512;13.300;2023-01-10T05:27:00;11.60;;;5.50;;
28245;SDS011;15510;52.512;13.300;2023-01-10T05:29:26;14.33;;;6.97;;
28245;SDS011;15510;52.512;13.300;2023-01-10T05:31:52;13.17;;;6.03;;
28245;SDS011;15510;52.512;13.300;2023-01-10T05:34:18;15.03;;;9.07;;
28245;SDS011;15510;52.512;13.300;2023-01-10T05:36:43;19.70;;;11.23;;
28245;SDS011;15510;52.512;13.300;2023-01-10T05:39:09;14.53;;;6.63;;
28245;SDS011;15510;52.512;13.300;2023-01-10T05:41:35;11.97;;;5.80;;
28245;SDS011;15510;52.512;13.300;2023-01-10T05:44:01;18.67;;;7.13;;
28245;SDS011;15510;52.512;13.300;2023-01-10T05:46:26;9.77;;;5.50;;
28245;SDS011;15510;52.512;13.300;2023-01-10T05:48:52;11.10;;;6.10;;
28245;SDS011;15510;52.512;13.300;2023-01-10T05:51:18;12.20;;;5.60;;
28245;SDS011;15510;52.512;13.300;2023-01-10T05:53:43;13.93;;;5.93;;
28245;SDS011;15510;52.512;13.300;2023-01-10T05:56:09;16.13;;;6.10;;
28245;SDS011;15510;52.512;13.300;2023-01-10T05:58:35;11.80;;;5.83;;
28245;SDS011;15510;52.512;13.300;2023-01-10T06:01:01;10.03;;;4.90;;
28245;SDS011;15510;52.512;13.300;2023-01-10T06:03:26;11.73;;;4.93;;
28245;SDS011;15510;52.512;13.300;2023-01-10T06:05:55;10.07;;;5.10;;
28245;SDS011;15510;52.512;13.300;2023-01-10T06:08:21;10.30;;;6.40;;
28245;SDS011;15510;52.512;13.300;2023-01-10T06:10:47;12.67;;;5.80;;
28245;SDS011;15510;52.512;13.300;2023-01-10T06:13:13;13.07;;;5.63;;
28245;SDS011;15510;52.512;13.300;2023-01-10T06:15:39;12.23;;;5.40;;
28245;SDS011;15510;52.512;13.300;2023-01-10T06:18:06;11.17;;;5.40;;
28245;SDS011;15510;52.512;13.300;2023-01-10T06:20:32;17.17;;;7.20;;
28245;SDS011;15510;52.512;13.300;2023-01-10T06:22:58;19.17;;;7.80;;
28245;SDS011;15510;52.512;13.300;2023-01-10T06:25:26;15.35;;;7.10;;
28245;SDS011;15510;52.512;13.300;2023-01-10T06:27:53;15.43;;;6.67;;
28245;SDS011;15510;52.512;13.300;2023-01-10T06:30:19;13.37;;;6.13;;
28245;SDS011;15510;52.512;13.300;2023-01-10T06:32:44;11.93;;;5.70;;
28245;SDS011;15510;52.512;13.300;2023-01-10T06:35:10;12.50;;;5.63;;
28245;SDS011;15510;52.512;13.300;2023-01-10T06:37:36;10.07;;;5.20;;
28245;SDS011;15510;52.512;13.300;2023-01-10T06:40:02;17.10;;;5.60;;
28245;SDS011;15510;52.512;13.300;2023-01-10T06:42:28;9.63;;;5.20;;
28245;SDS011;15510;52.512;13.300;2023-01-10T06:44:54;11.80;;;5.47;;
28245;SDS011;15510;52.512;13.300;2023-01-10T06:47:19;12.47;;;6.23;;
28245;SDS011;15510;52.512;13.300;2023-01-10T06:49:45;16.90;;;6.33;;
28245;SDS011;15510;52.512;13.300;2023-01-10T06:52:11;15.40;;;7.67;;
28245;SDS011;15510;52.512;13.300;2023-01-10T06:54:36;21.30;;;6.87;;
28245;SDS011;15510;52.512;13.300;2023-01-10T06:57:02;17.77;;;6.37;;
28245;SDS011;15510;52.512;13.300;2023-01-10T06:59:28;15.97;;;6.57;;
28245;SDS011;15510;52.512;13.300;2023-01-10T07:01:54;16.07;;;6.07;;
28245;SDS011;15510;52.512;13.300;2023-01-10T07:04:20;18.27;;;6.13;;
28245;SDS011;15510;52.512;13.300;2023-01-10T07:06:45;13.67;;;5.90;;
28245;SDS011;15510;52.512;13.300;2023-01-10T07:09:11;14.53;;;6.67;;
28245;SDS011;15510;52.512;13.300;2023-01-10T07:11:37;15.77;;;6.20;;
28245;SDS011;15510;52.512;13.300;2023-01-10T07:14:02;14.70;;;6.10;;
28245;SDS011;15510;52.512;13.300;2023-01-10T07:16:28;13.20;;;7.47;;
28245;SDS011;15510;52.512;13.300;2023-01-10T07:18:54;15.93;;;6.47;;
28245;SDS011;15510;52.512;13.300;2023-01-10T07:21:20;13.83;;;6.93;;
28245;SDS011;15510;52.512;13.300;2023-01-10T07:23:46;15.80;;;6.80;;
28245;SDS011;15510;52.512;13.300;2023-01-10T07:26:14;15.43;;;6.40;;
28245;SDS011;15510;52.512;13.300;2023-01-10T07:28:42;12.43;;;6.43;;
28245;SDS011;15510;52.512;13.300;2023-01-10T07:31:18;12.93;;;6.73;;
28245;SDS011;15510;52.512;13.300;2023-01-10T07:33:45;15.40;;;7.13;;
28245;SDS011;15510;52.512;13.300;2023-01-10T07:36:11;16.10;;;6.97;;
28245;SDS011;15510;52.512;13.300;2023-01-10T07:38:37;17.73;;;7.57;;
28245;SDS011;15510;52.512;13.300;2023-01-10T07:41:04;18.70;;;8.23;;
28245;SDS011;15510;52.512;13.300;2023-01-10T07:43:30;20.30;;;8.13;;
28245;SDS011;15510;52.512;13.300;2023-01-10T07:45:59;15.80;;;7.47;;
28245;SDS011;15510;52.512;13.300;2023-01-10T07:48:27;15.50;;;7.47;;
28245;SDS011;15510;52.512;13.300;2023-01-10T07:50:54;13.00;;;7.73;;
28245;SDS011;15510;52.512;13.300;2023-01-10T07:53:24;19.97;;;7.57;;
28245;SDS011;15510;52.512;13.300;2023-01-10T07:55:50;18.43;;;9.67;;
28245;SDS011;15510;52.512;13.300;2023-01-10T07:58:16;15.90;;;8.83;;
28245;SDS011;15510;52.512;13.300;2023-01-10T08:00:42;19.73;;;10.30;;
28245;SDS011;15510;52.512;13.300;2023-01-10T08:03:11;17.50;;;8.53;;
28245;SDS011;15510;52.512;13.300;2023-01-10T08:05:37;17.30;;;8.90;;
28245;SDS011;15510;52.512;13.300;2023-01-10T08:08:10;18.30;;;7.33;;
28245;SDS011;15510;52.512;13.300;2023-01-10T08:10:37;14.33;;;7.57;;
28245;SDS011;15510;52.512;13.300;2023-01-10T08:13:04;16.23;;;7.67;;
28245;SDS011;15510;52.512;13.300;2023-01-10T08:15:30;18.77;;;8.03;;
28245;SDS011;15510;52.512;13.300;2023-01-10T08:18:01;16.33;;;6.77;;
28245;SDS011;15510;52.512;13.300;2023-01-10T08:20:28;11.73;;;6.73;;
28245;SDS011;15510;52.512;13.300;2023-01-10T08:22:57;15.13;;;6.60;;
28245;SDS011;15510;52.512;13.300;2023-01-10T08:25:24;13.47;;;6.70;;
28245;SDS011;15510;52.512;13.300;2023-01-10T08:27:50;12.73;;;6.30;;
28245;SDS011;15510;52.512;13.300;2023-01-10T08:30:16;11.40;;;6.83;;
28245;SDS011;15510;52.512;13.300;2023-01-10T08:32:42;16.43;;;7.20;;
28245;SDS011;15510;52.512;13.300;2023-01-10T08:35:07;13.67;;;7.03;;
28245;SDS011;15510;52.512;13.300;2023-01-10T08:37:33;14.73;;;7.07;;
28245;SDS011;15510;52.512;13.300;2023-01-10T08:39:59;12.50;;;6.03;;
28245;SDS011;15510;52.512;13.300;2023-01-10T08:42:25;11.03;;;6.20;;
28245;SDS011;15510;52.512;13.300;2023-01-10T08:44:51;12.30;;;6.53;;
28245;SDS011;15510;52.512;13.300;2023-01-10T08:47:18;12.27;;;6.30;;
28245;SDS011;15510;52.512;13.300;2023-01-10T08:49:44;15.43;;;7.37;;
28245;SDS011;15510;52.512;13.300;2023-01-10T08:52:11;12.27;;;6.90;;
28245;SDS011;15510;52.512;13.300;2023-01-10T08:54:37;13.67;;;6.73;;
28245;SDS011;15510;52.512;13.300;2023-01-10T08:57:03;11.53;;;7.03;;
28245;SDS011;15510;52.512;13.300;2023-01-10T08:59:28;11.57;;;6.00;;
28245;SDS011;15510;52.512;13.300;2023-01-10T09:01:54;14.90;;;6.73;;
28245;SDS011;15510;52.512;13.300;2023-01-10T09:04:22;14.63;;;6.67;;
28245;SDS011;15510;52.512;13.300;2023-01-10T09:06:48;11.30;;;6.33;;
28245;SDS011;15510;52.512;13.300;2023-01-10T09:09:14;11.70;;;7.00;;
28245;SDS011;15510;52.512;13.300;2023-01-10T09:11:40;12.57;;;6.97;;
28245;SDS011;15510;52.512;13.300;2023-01-10T09:14:05;13.43;;;6.83;;
28245;SDS011;15510;52.512;13.300;2023-01-10T09:16:31;12.27;;;5.90;;
28245;SDS011;15510;52.512;13.300;2023-01-10T09:18:57;12.63;;;6.40;;
28245;SDS011;15510;52.512;13.300;2023-01-10T09:21:23;13.87;;;5.93;;
28245;SDS011;15510;52.512;13.300;2023-01-10T09:23:49;14.37;;;6.70;;
28245;SDS011;15510;52.512;13.300;2023-01-10T09:26:14;18.63;;;7.00;;
28245;SDS011;15510;52.512;13.300;2023-01-10T09:28:40;17.90;;;6.63;;
28245;SDS011;15510;52.512;13.300;2023-01-10T09:31:06;18.13;;;6.97;;
28245;SDS011;15510;52.512;13.300;2023-01-10T09:33:33;11.47;;;6.87;;
28245;SDS011;15510;52.512;13.300;2023-01-10T09:36:00;12.20;;;5.90;;
28245;SDS011;15510;52.512;13.300;2023-01-10T09:38:25;11.63;;;5.83;;
28245;SDS011;15510;52.512;13.300;2023-01-10T09:46:13;14.83;;;7.23;;
28245;SDS011;15510;52.512;13.300;2023-01-10T09:54:05;11.87;;;6.97;;
28245;SDS011;15510;52.512;13.300;2023-01-10T09:56:43;18.80;;;6.53;;
28245;SDS011;15510;52.512;13.300;2023-01-10T09:59:14;19.60;;;7.30;;
28245;SDS011;15510;52.512;13.300;2023-01-10T10:01:43;11.67;;;6.90;;
28245;SDS011;15510;52.512;13.300;2023-01-10T10:06:51;15.67;;;6.23;;
28245;SDS011;15510;52.512;13.300;2023-01-10T10:09:20;14.07;;;6.07;;
28245;SDS011;15510;52.512;13.300;2023-01-10T10:14:32;11.10;;;5.27;;
28245;SDS011;15510;52.512;13.300;2023-01-10T10:22:32;8.83;;;4.83;;
28245;SDS011;15510;52.512;13.300;2023-01-10T10:36:23;14.10;;;4.97;;
28245;SDS011;15510;52.512;13.300;2023-01-10T10:38:59;11.57;;;4.80;;
28245;SDS011;15510;52.512;13.300;2023-01-10T10:43:52;13.00;;;5.87;;
28245;SDS011;15510;52.512;13.300;2023-01-10T10:46:19;14.23;;;4.97;;
28245;SDS011;15510;52.512;13.300;2023-01-10T10:48:52;16.57;;;8.57;;
28245;SDS011;15510;52.512;13.300;2023-01-10T10:54:06;14.77;;;6.53;;
28245;SDS011;15510;52.512;13.300;2023-01-10T10:56:36;11.13;;;6.40;;
28245;SDS011;15510;52.512;13.300;2023-01-10T10:59:02;18.47;;;8.13;;
28245;SDS011;15510;52.512;13.300;2023-01-10T11:01:29;14.73;;;6.13;;
28245;SDS011;15510;52.512;13.300;2023-01-10T11:03:57;21.37;;;9.40;;
28245;SDS011;15510;52.512;13.300;2023-01-10T11:06:30;12.07;;;5.67;;
28245;SDS011;15510;52.512;13.300;2023-01-10T11:08:58;14.47;;;4.97;;
28245;SDS011;15510;52.512;13.300;2023-01-10T11:11:26;14.47;;;5.20;;
28245;SDS011;15510;52.512;13.300;2023-01-10T11:13:54;12.97;;;5.37;;
28245;SDS011;15510;52.512;13.300;2023-01-10T11:16:23;9.30;;;4.30;;
28245;SDS011;15510;52.512;13.300;2023-01-10T11:19:09;11.17;;;4.93;;
28245;SDS011;15510;52.512;13.300;2023-01-10T11:21:36;12.47;;;4.90;;
28245;SDS011;15510;52.512;13.300;2023-01-10T11:24:04;10.63;;;3.40;;
28245;SDS011;15510;52.512;13.300;2023-01-10T11:26:34;8.93;;;3.77;;
28245;SDS011;15510;52.512;13.300;2023-01-10T11:29:46;12.37;;;4.23;;
28245;SDS011;15510;52.512;13.300;2023-01-10T11:31:57;8.33;;;3.47;;
28245;SDS011;15510;52.512;13.300;2023-01-10T11:34:32;11.87;;;3.57;;
28245;SDS011;15510;52.512;13.300;2023-01-10T11:37:04;9.40;;;3.50;;
28245;SDS011;15510;52.512;13.300;2023-01-10T11:39:42;11.07;;;3.47;;
28245;SDS011;15510;52.512;13.300;2023-01-10T11:50:21;11.07;;;3.93;;
28245;SDS011;15510;52.512;13.300;2023-01-10T11:52:56;15.73;;;4.57;;
28245;SDS011;15510;52.512;13.300;2023-01-10T11:55:23;16.53;;;6.63;;
28245;SDS011;15510;52.512;13.300;2023-01-10T11:58:07;13.30;;;4.90;;
28245;SDS011;15510;52.512;13.300;2023-01-10T12:00:38;10.37;;;3.37;;
28245;SDS011;15510;52.512;13.300;2023-01-10T12:03:18;14.57;;;3.50;;
28245;SDS011;15510;52.512;13.300;2023-01-10T12:08:32;13.67;;;4.07;;
28245;SDS011;15510;52.512;13.300;2023-01-10T12:11:02;12.53;;;3.67;;
28245;SDS011;15510;52.512;13.300;2023-01-10T12:13:30;12.53;;;3.93;;
28245;SDS011;15510;52.512;13.300;2023-01-10T12:18:40;10.57;;;4.13;;
28245;SDS011;15510;52.512;13.300;2023-01-10T12:21:06;10.37;;;3.83;;
28245;SDS011;15510;52.512;13.300;2023-01-10T12:23:33;10.30;;;4.47;;
28245;SDS011;15510;52.512;13.300;2023-01-10T12:26:05;17.23;;;8.60;;
28245;SDS011;15510;52.512;13.300;2023-01-10T12:28:32;16.77;;;3.50;;
28245;SDS011;15510;52.512;13.300;2023-01-10T12:31:00;9.17;;;3.17;;
28245;SDS011;15510;52.512;13.300;2023-01-10T12:33:36;13.37;;;3.93;;
28245;SDS011;15510;52.512;13.300;2023-01-10T12:39:07;12.23;;;5.30;;
28245;SDS011;15510;52.512;13.300;2023-01-10T12:41:58;9.47;;;2.47;;
28245;SDS011;15510;52.512;13.300;2023-01-10T12:45:02;11.90;;;4.30;;
28245;SDS011;15510;52.512;13.300;2023-01-10T12:47:34;10.90;;;3.43;;
28245;SDS011;15510;52.512;13.300;2023-01-10T12:52:40;15.00;;;7.03;;
28245;SDS011;15510;52.512;13.300;2023-01-10T12:55:12;17.77;;;7.30;;
28245;SDS011;15510;52.512;13.300;2023-01-10T12:57:43;14.87;;;5.43;;
28245;SDS011;15510;52.512;13.300;2023-01-10T13:00:34;12.67;;;5.70;;
28245;SDS011;15510;52.512;13.300;2023-01-10T13:03:03;12.23;;;2.80;;
28245;SDS011;15510;52.512;13.300;2023-01-10T13:05:35;9.30;;;3.03;;
28245;SDS011;15510;52.512;13.300;2023-01-10T13:08:05;13.23;;;2.97;;
28245;SDS011;15510;52.512;13.300;2023-01-10T13:10:37;10.37;;;2.90;;
28245;SDS011;15510;52.512;13.300;2023-01-10T13:15:52;13.07;;;2.80;;
28245;SDS011;15510;52.512;13.300;2023-01-10T13:18:23;13.60;;;2.73;;
28245;SDS011;15510;52.512;13.300;2023-01-10T13:21:03;11.13;;;2.70;;
28245;SDS011;15510;52.512;13.300;2023-01-10T13:23:47;11.83;;;2.60;;
28245;SDS011;15510;52.512;13.300;2023-01-10T13:26:15;16.47;;;3.80;;
28245;SDS011;15510;52.512;13.300;2023-01-10T13:28:51;15.00;;;3.00;;
28245;SDS011;15510;52.512;13.300;2023-01-10T13:31:25;13.87;;;3.23;;
28245;SDS011;15510;52.512;13.300;2023-01-10T13:34:01;10.20;;;2.90;;
28245;SDS011;15510;52.512;13.300;2023-01-10T13:36:39;13.63;;;4.90;;
28245;SDS011;15510;52.512;13.300;2023-01-10T13:58:49;13.50;;;4.23;;
28245;SDS011;15510;52.512;13.300;2023-01-10T14:04:32;9.63;;;3.77;;
28245;SDS011;15510;52.512;13.300;2023-01-10T14:09:38;17.33;;;6.03;;
28245;SDS011;15510;52.512;13.300;2023-01-10T14:12:19;19.57;;;9.03;;
28245;SDS011;15510;52.512;13.300;2023-01-10T14:14:55;16.43;;;5.07;;
28245;SDS011;15510;52.512;13.300;2023-01-10T14:17:30;14.77;;;5.17;;
28245;SDS011;15510;52.512;13.300;2023-01-10T14:22:40;12.60;;;3.50;;
28245;SDS011;15510;52.512;13.300;2023-01-10T14:25:26;10.10;;;3.50;;
28245;SDS011;15510;52.512;13.300;2023-01-10T14:27:54;14.77;;;3.97;;
28245;SDS011;15510;52.512;13.300;2023-01-10T14:30:33;16.13;;;4.30;;
28245;SDS011;15510;52.512;13.300;2023-01-10T14:33:12;14.63;;;7.33;;
28245;SDS011;15510;52.512;13.300;2023-01-10T14:35:44;21.80;;;9.33;;
28245;SDS011;15510;52.512;13.300;2023-01-10T14:38:27;15.10;;;6.43;;
28245;SDS011;15510;52.512;13.300;2023-01-10T14:41:00;13.23;;;4.67;;
28245;SDS011;15510;52.512;13.300;2023-01-10T14:43:30;9.07;;;3.97;;
28245;SDS011;15510;52.512;13.300;2023-01-10T14:48:54;14.67;;;3.73;;
28245;SDS011;15510;52.512;13.300;2023-01-10T14:51:25;13.10;;;4.27;;
28245;SDS011;15510;52.512;13.300;2023-01-10T15:01:53;11.27;;;4.70;;
28245;SDS011;15510;52.512;13.300;2023-01-10T15:04:26;17.30;;;7.97;;
28245;SDS011;15510;52.512;13.300;2023-01-10T15:06:58;12.30;;;5.17;;
28245;SDS011;15510;52.512;13.300;2023-01-10T15:09:27;19.73;;;10.70;;
28245;SDS011;15510;52.512;13.300;2023-01-10T15:11:55;13.20;;;5.67;;
28245;SDS011;15510;52.512;13.300;2023-01-10T15:14:23;12.17;;;3.97;;
28245;SDS011;15510;52.512;13.300;2023-01-10T15:16:51;11.03;;;5.60;;
28245;SDS011;15510;52.512;13.300;2023-01-10T15:19:21;18.50;;;6.57;;
28245;SDS011;15510;52.512;13.300;2023-01-10T15:21:48;14.80;;;7.57;;
28245;SDS011;15510;52.512;13.300;2023-01-10T15:27:02;14.27;;;6.23;;
28245;SDS011;15510;52.512;13.300;2023-01-10T15:29:30;14.10;;;4.47;;
28245;SDS011;15510;52.512;13.300;2023-01-10T15:32:39;22.60;;;8.57;;
28245;SDS011;15510;52.512;13.300;2023-01-10T15:34:47;11.47;;;4.30;;
28245;SDS011;15510;52.512;13.300;2023-01-10T15:37:18;10.23;;;3.93;;
28245;SDS011;15510;52.512;13.300;2023-01-10T15:39:47;14.93;;;5.57;;
28245;SDS011;15510;52.512;13.300;2023-01-10T15:42:13;20.93;;;8.20;;
28245;SDS011;15510;52.512;13.300;2023-01-10T15:44:42;16.97;;;8.90;;
28245;SDS011;15510;52.512;13.300;2023-01-10T15:50:00;13.27;;;4.67;;
28245;SDS011;15510;52.512;13.300;2023-01-10T15:52:27;11.90;;;4.67;;
28245;SDS011;15510;52.512;13.300;2023-01-10T15:54:53;10.37;;;3.27;;
28245;SDS011;15510;52.512;13.300;2023-01-10T15:59:54;7.30;;;2.90;;
28245;SDS011;15510;52.512;13.300;2023-01-10T16:02:22;7.10;;;3.50;;
28245;SDS011;15510;52.512;13.300;2023-01-10T16:04:53;5.80;;;2.90;;
28245;SDS011;15510;52.512;13.300;2023-01-10T16:07:22;7.30;;;4.00;;
28245;SDS011;15510;52.512;13.300;2023-01-10T16:12:37;9.87;;;3.43;;
28245;SDS011;15510;52.512;13.300;2023-01-10T16:15:24;9.40;;;3.87;;
28245;SDS011;15510;52.512;13.300;2023-01-10T16:17:51;5.87;;;2.60;;
28245;SDS011;15510;52.512;13.300;2023-01-10T16:20:18;10.47;;;3.10;;
28245;SDS011;15510;52.512;13.300;2023-01-10T16:22:53;10.77;;;3.13;;
28245;SDS011;15510;52.512;13.300;2023-01-10T16:25:42;7.80;;;2.67;;
28245;SDS011;15510;52.512;13.300;2023-01-10T16:28:12;6.57;;;3.07;;
28245;SDS011;15510;52.512;13.300;2023-01-10T16:30:39;8.40;;;3.10;;
28245;SDS011;15510;52.512;13.300;2023-01-10T16:33:17;11.80;;;3.00;;
28245;SDS011;15510;52.512;13.300;2023-01-10T16:35:48;13.63;;;4.07;;
28245;SDS011;15510;52.512;13.300;2023-01-10T16:38:18;7.17;;;3.43;;
28245;SDS011;15510;52.512;13.300;2023-01-10T16:40:49;12.57;;;3.43;;
28245;SDS011;15510;52.512;13.300;2023-01-10T16:43:46;8.30;;;3.23;;
28245;SDS011;15510;52.512;13.300;2023-01-10T16:46:13;13.97;;;5.97;;
28245;SDS011;15510;52.512;13.300;2023-01-10T16:48:38;9.17;;;4.00;;
28245;SDS011;15510;52.512;13.300;2023-01-10T16:51:09;13.67;;;5.93;;
28245;SDS011;15510;52.512;13.300;2023-01-10T16:53:43;17.20;;;4.50;;
28245;SDS011;15510;52.512;13.300;2023-01-10T16:56:10;13.33;;;6.07;;
28245;SDS011;15510;52.512;13.300;2023-01-10T16:58:41;15.00;;;6.33;;
28245;SDS011;15510;52.512;13.300;2023-01-10T17:01:29;9.03;;;3.93;;
28245;SDS011;15510;52.512;13.300;2023-01-10T17:03:59;12.80;;;4.60;;
28245;SDS011;15510;52.512;13.300;2023-01-10T17:06:25;8.73;;;4.03;;